sensor_id;sensor_type;location;lat;lon;timestamp;temperature;humidity
5899;DHT22;2975;50.956;6.962;2023-04-03T00:00:56;3.90;99.90
5899;DHT22;2975;50.956;6.962;2023-04-03T00:03:22;3.80;99.90
5899;DHT22;2975;50.956;6.962;2023-04-03T00:05:48;3.70;99.90
5899;DHT22;2975;50.956;6.962;2023-04-03T00:08:14;3.60;99.90
5899;DHT22;2975;50.956;6.962;2023-04-03T00:10:40;3.50;99.90
5899;DHT22;2975;50.956;6.962;2023-04-03T00:13:07;3.40;99.90
5899;DHT22;2975;50.956;6.962;2023-04-03T00:15:34;3.40;99.90
5899;DHT22;2975;50.956;6.962;2023-04-03T00:18:00;3.20;99.90
5899;DHT22;2975;50.956;6.962;2023-04-03T00:20:25;3.20;99.90
5899;DHT22;2975;50.956;6.962;2023-04-03T00:22:52;3.10;99.90
5899;DHT22;2975;50.956;6.962;2023-04-03T00:25:18;3.10;99.90
5899;DHT22;2975;50.956;6.962;2023-04-03T00:27:44;3.10;99.90
5899;DHT22;2975;50.956;6.962;2023-04-03T00:30:13;3.10;99.90
5899;DHT22;2975;50.956;6.962;2023-04-03T00:32:38;3.00;99.90
5899;DHT22;2975;50.956;6.962;2023-04-03T00:35:04;2.90;99.90
5899;DHT22;2975;50.956;6.962;2023-04-03T00:37:30;2.90;99.90
5899;DHT22;2975;50.956;6.962;2023-04-03T00:39:56;2.80;99.90
5899;DHT22;2975;50.956;6.962;2023-04-03T00:42:22;2.70;99.90
5899;DHT22;2975;50.956;6.962;2023-04-03T00:47:16;2.60;99.90
5899;DHT22;2975;50.956;6.962;2023-04-03T00:49:42;2.60;99.90
5899;DHT22;2975;50.956;6.962;2023-04-03T00:52:12;2.60;99.90
5899;DHT22;2975;50.956;6.962;2023-04-03T00:54:40;2.60;99.90
5899;DHT22;2975;50.956;6.962;2023-04-03T00:57:06;2.60;99.90
5899;DHT22;2975;50.956;6.962;2023-04-03T00:59:36;2.60;99.90
5899;DHT22;2975;50.956;6.962;2023-04-03T01:02:03;2.60;99.90
5899;DHT22;2975;50.956;6.962;2023-04-03T01:04:35;2.50;99.90
5899;DHT22;2975;50.956;6.962;2023-04-03T01:07:05;2.50;99.90
5899;DHT22;2975;50.956;6.962;2023-04-03T01:09:33;2.40;99.90
5899;DHT22;2975;50.956;6.962;2023-04-03T01:14:42;2.20;99.90
5899;DHT22;2975;50.956;6.962;2023-04-03T01:17:37;2.10;99.90
5899;DHT22;2975;50.956;6.962;2023-04-03T01:25:37;2.10;99.90
5899;DHT22;2975;50.956;6.962;2023-04-03T01:28:05;2.10;99.90
5899;DHT22;2975;50.956;6.962;2023-04-03T01:30:36;2.10;99.90
5899;DHT22;2975;50.956;6.962;2023-04-03T01:33:06;2.10;99.90
5899;DHT22;2975;50.956;6.962;2023-04-03T01:35:32;2.00;99.90
5899;DHT22;2975;50.956;6.962;2023-04-03T01:37:57;2.00;99.90
5899;DHT22;2975;50.956;6.962;2023-04-03T01:40:23;2.00;99.90
5899;DHT22;2975;50.956;6.962;2023-04-03T01:42:49;1.90;99.90
5899;DHT22;2975;50.956;6.962;2023-04-03T01:45:14;2.00;99.90
5899;DHT22;2975;50.956;6.962;2023-04-03T01:47:40;1.90;99.90
5899;DHT22;2975;50.956;6.962;2023-04-03T01:50:06;1.90;99.90
5899;DHT22;2975;50.956;6.962;2023-04-03T01:52:31;1.80;99.90
5899;DHT22;2975;50.956;6.962;2023-04-03T01:54:57;1.80;99.90
5899;DHT22;2975;50.956;6.962;2023-04-03T01:57:23;1.70;99.90
5899;DHT22;2975;50.956;6.962;2023-04-03T01:59:48;1.60;99.90
5899;DHT22;2975;50.956;6.962;2023-04-03T02:02:14;1.50;99.90
5899;DHT22;2975;50.956;6.962;2023-04-03T02:04:40;1.50;99.90
5899;DHT22;2975;50.956;6.962;2023-04-03T02:07:06;1.50;99.90
5899;DHT22;2975;50.956;6.962;2023-04-03T02:09:32;1.60;99.90
5899;DHT22;2975;50.956;6.962;2023-04-03T02:11:57;1.60;99.90
5899;DHT22;2975;50.956;6.962;2023-04-03T02:14:23;1.70;99.90
5899;DHT22;2975;50.956;6.962;2023-04-03T02:16:49;1.70;99.90
5899;DHT22;2975;50.956;6.962;2023-04-03T02:19:15;1.70;99.90
5899;DHT22;2975;50.956;6.962;2023-04-03T02:21:41;1.60;99.90
5899;DHT22;2975;50.956;6.962;2023-04-03T02:24:07;1.60;99.90
5899;DHT22;2975;50.956;6.962;2023-04-03T02:26:32;1.60;99.90
5899;DHT22;2975;50.956;6.962;2023-04-03T02:28:58;1.60;99.90
5899;DHT22;2975;50.956;6.962;2023-04-03T02:31:23;1.40;99.90
5899;DHT22;2975;50.956;6.962;2023-04-03T02:33:49;1.50;99.90
5899;DHT22;2975;50.956;6.962;2023-04-03T02:36:15;1.50;99.90
5899;DHT22;2975;50.956;6.962;2023-04-03T02:38:41;1.50;99.90
5899;DHT22;2975;50.956;6.962;2023-04-03T02:41:09;1.50;99.90
5899;DHT22;2975;50.956;6.962;2023-04-03T02:43:35;1.50;99.90
5899;DHT22;2975;50.956;6.962;2023-04-03T02:46:01;1.40;99.90
5899;DHT22;2975;50.956;6.962;2023-04-03T02:48:26;1.30;99.90
5899;DHT22;2975;50.956;6.962;2023-04-03T02:50:53;1.30;99.90
5899;DHT22;2975;50.956;6.962;2023-04-03T02:53:18;1.30;99.90
5899;DHT22;2975;50.956;6.962;2023-04-03T02:55:45;1.30;99.90
5899;DHT22;2975;50.956;6.962;2023-04-03T02:58:11;1.20;99.90
5899;DHT22;2975;50.956;6.962;2023-04-03T03:00:37;1.20;99.90
5899;DHT22;2975;50.956;6.962;2023-04-03T03:03:04;1.20;99.90
5899;DHT22;2975;50.956;6.962;2023-04-03T03:05:30;1.20;99.90
5899;DHT22;2975;50.956;6.962;2023-04-03T03:07:56;1.20;99.90
5899;DHT22;2975;50.956;6.962;2023-04-03T03:10:22;1.20;99.90
5899;DHT22;2975;50.956;6.962;2023-04-03T03:12:48;1.30;99.90
5899;DHT22;2975;50.956;6.962;2023-04-03T03:15:14;1.30;99.90
5899;DHT22;2975;50.956;6.962;2023-04-03T03:17:43;1.40;99.90
5899;DHT22;2975;50.956;6.962;2023-04-03T03:20:09;1.50;99.90
5899;DHT22;2975;50.956;6.962;2023-04-03T03:22:35;1.50;99.90
5899;DHT22;2975;50.956;6.962;2023-04-03T03:25:01;1.50;99.90
5899;DHT22;2975;50.956;6.962;2023-04-03T03:27:27;1.50;99.90
5899;DHT22;2975;50.956;6.962;2023-04-03T03:29:53;1.60;99.90
5899;DHT22;2975;50.956;6.962;2023-04-03T03:32:18;1.60;99.90
5899;DHT22;2975;50.956;6.962;2023-04-03T03:34:44;1.60;99.90
5899;DHT22;2975;50.956;6.962;2023-04-03T03:37:10;1.60;99.90
5899;DHT22;2975;50.956;6.962;2023-04-03T03:39:36;1.70;99.90
5899;DHT22;2975;50.956;6.962;2023-04-03T03:42:01;1.70;99.90
5899;DHT22;2975;50.956;6.962;2023-04-03T03:44:27;1.80;99.90
5899;DHT22;2975;50.956;6.962;2023-04-03T03:46:55;1.80;99.90
5899;DHT22;2975;50.956;6.962;2023-04-03T03:49:20;1.80;99.90
5899;DHT22;2975;50.956;6.962;2023-04-03T03:51:46;1.80;99.90
5899;DHT22;2975;50.956;6.962;2023-04-03T03:54:12;1.80;99.90
5899;DHT22;2975;50.956;6.962;2023-04-03T03:56:37;1.80;99.90
5899;DHT22;2975;50.956;6.962;2023-04-03T03:59:03;1.80;99.90
5899;DHT22;2975;50.956;6.962;2023-04-03T04:01:29;1.80;99.90
5899;DHT22;2975;50.956;6.962;2023-04-03T04:03:55;1.70;99.90
5899;DHT22;2975;50.956;6.962;2023-04-03T04:06:20;1.80;99.90
5899;DHT22;2975;50.956;6.962;2023-04-03T04:08:46;1.80;99.90
5899;DHT22;2975;50.956;6.962;2023-04-03T04:11:12;1.70;99.90
5899;DHT22;2975;50.956;6.962;2023-04-03T04:13:38;1.70;99.90
5899;DHT22;2975;50.956;6.962;2023-04-03T04:16:03;1.70;99.90
5899;DHT22;2975;50.956;6.962;2023-04-03T04:18:29;1.70;99.90
5899;DHT22;2975;50.956;6.962;2023-04-03T04:20:55;1.70;99.90
5899;DHT22;2975;50.956;6.962;2023-04-03T04:23:21;1.70;99.90
5899;DHT22;2975;50.956;6.962;2023-04-03T04:25:47;1.70;99.90
5899;DHT22;2975;50.956;6.962;2023-04-03T04:28:14;1.70;99.90
5899;DHT22;2975;50.956;6.962;2023-04-03T04:30:40;1.80;99.90
5899;DHT22;2975;50.956;6.962;2023-04-03T04:33:06;1.80;99.90
5899;DHT22;2975;50.956;6.962;2023-04-03T04:35:32;1.90;99.90
5899;DHT22;2975;50.956;6.962;2023-04-03T04:37:57;1.90;99.90
5899;DHT22;2975;50.956;6.962;2023-04-03T04:40:23;2.00;99.90
5899;DHT22;2975;50.956;6.962;2023-04-03T04:42:49;2.00;99.90
5899;DHT22;2975;50.956;6.962;2023-04-03T04:45:14;1.90;99.90
5899;DHT22;2975;50.956;6.962;2023-04-03T04:47:40;1.90;99.90
5899;DHT22;2975;50.956;6.962;2023-04-03T04:50:06;1.90;99.90
5899;DHT22;2975;50.956;6.962;2023-04-03T04:52:32;1.80;99.90
5899;DHT22;2975;50.956;6.962;2023-04-03T04:54:58;1.80;99.90
5899;DHT22;2975;50.956;6.962;2023-04-03T04:57:24;1.80;99.90
5899;DHT22;2975;50.956;6.962;2023-04-03T04:59:49;1.80;99.90
5899;DHT22;2975;50.956;6.962;2023-04-03T05:02:15;1.80;99.90
5899;DHT22;2975;50.956;6.962;2023-04-03T05:04:40;1.80;99.90
5899;DHT22;2975;50.956;6.962;2023-04-03T05:07:06;1.70;99.90
5899;DHT22;2975;50.956;6.962;2023-04-03T05:09:32;1.80;99.90
5899;DHT22;2975;50.956;6.962;2023-04-03T05:11:57;1.80;99.90
5899;DHT22;2975;50.956;6.962;2023-04-03T05:14:23;1.80;99.90
5899;DHT22;2975;50.956;6.962;2023-04-03T05:16:50;1.80;99.90
5899;DHT22;2975;50.956;6.962;2023-04-03T05:19:22;1.90;99.90
5899;DHT22;2975;50.956;6.962;2023-04-03T05:21:48;1.90;99.90
5899;DHT22;2975;50.956;6.962;2023-04-03T05:24:14;1.90;99.90
5899;DHT22;2975;50.956;6.962;2023-04-03T05:26:40;2.00;99.90
5899;DHT22;2975;50.956;6.962;2023-04-03T05:29:06;2.10;99.90
5899;DHT22;2975;50.956;6.962;2023-04-03T05:31:32;2.40;99.90
5899;DHT22;2975;50.956;6.962;2023-04-03T05:33:58;3.10;99.90
5899;DHT22;2975;50.956;6.962;2023-04-03T05:36:23;3.80;99.90
5899;DHT22;2975;50.956;6.962;2023-04-03T05:38:49;5.00;99.90
5899;DHT22;2975;50.956;6.962;2023-04-03T05:41:15;6.20;99.90
5899;DHT22;2975;50.956;6.962;2023-04-03T05:43:41;7.20;96.20
5899;DHT22;2975;50.956;6.962;2023-04-03T05:46:10;8.30;94.40
5899;DHT22;2975;50.956;6.962;2023-04-03T05:48:36;9.00;92.70
5899;DHT22;2975;50.956;6.962;2023-04-03T05:51:02;9.70;91.40
5899;DHT22;2975;50.956;6.962;2023-04-03T05:53:29;10.20;89.80
5899;DHT22;2975;50.956;6.962;2023-04-03T05:55:57;10.40;86.20
5899;DHT22;2975;50.956;6.962;2023-04-03T05:58:23;10.40;87.70
5899;DHT22;2975;50.956;6.962;2023-04-03T06:00:48;10.70;84.40
5899;DHT22;2975;50.956;6.962;2023-04-03T06:03:14;10.80;83.90
5899;DHT22;2975;50.956;6.962;2023-04-03T06:05:40;9.60;84.20
5899;DHT22;2975;50.956;6.962;2023-04-03T06:08:07;8.10;86.90
5899;DHT22;2975;50.956;6.962;2023-04-03T06:10:32;6.60;90.40
5899;DHT22;2975;50.956;6.962;2023-04-03T06:12:58;5.80;92.30
5899;DHT22;2975;50.956;6.962;2023-04-03T06:15:23;5.00;93.60
5899;DHT22;2975;50.956;6.962;2023-04-03T06:17:50;4.40;95.00
5899;DHT22;2975;50.956;6.962;2023-04-03T06:20:16;4.10;96.70
5899;DHT22;2975;50.956;6.962;2023-04-03T06:22:42;4.00;97.20
5899;DHT22;2975;50.956;6.962;2023-04-03T06:25:08;3.80;97.70
5899;DHT22;2975;50.956;6.962;2023-04-03T06:27:35;3.60;98.30
5899;DHT22;2975;50.956;6.962;2023-04-03T06:30:00;3.60;98.70
5899;DHT22;2975;50.956;6.962;2023-04-03T06:32:26;3.60;99.20
5899;DHT22;2975;50.956;6.962;2023-04-03T06:34:52;3.60;99.60
5899;DHT22;2975;50.956;6.962;2023-04-03T06:37:20;3.60;99.40
5899;DHT22;2975;50.956;6.962;2023-04-03T06:39:47;3.60;99.00
5899;DHT22;2975;50.956;6.962;2023-04-03T06:42:13;3.60;99.20
5899;DHT22;2975;50.956;6.962;2023-04-03T06:44:39;3.60;99.20
5899;DHT22;2975;50.956;6.962;2023-04-03T06:47:04;3.70;99.10
5899;DHT22;2975;50.956;6.962;2023-04-03T06:49:31;3.70;98.60
5899;DHT22;2975;50.956;6.962;2023-04-03T06:51:57;3.80;98.70
5899;DHT22;2975;50.956;6.962;2023-04-03T06:54:23;4.00;98.20
5899;DHT22;2975;50.956;6.962;2023-04-03T06:56:48;4.00;98.00
5899;DHT22;2975;50.956;6.962;2023-04-03T06:59:15;4.00;97.70
5899;DHT22;2975;50.956;6.962;2023-04-03T07:01:41;4.00;97.70
5899;DHT22;2975;50.956;6.962;2023-04-03T07:04:07;4.10;97.40
5899;DHT22;2975;50.956;6.962;2023-04-03T07:06:33;4.20;97.40
5899;DHT22;2975;50.956;6.962;2023-04-03T07:09:00;4.20;97.00
5899;DHT22;2975;50.956;6.962;2023-04-03T07:11:25;4.20;96.60
5899;DHT22;2975;50.956;6.962;2023-04-03T07:13:53;4.20;97.00
5899;DHT22;2975;50.956;6.962;2023-04-03T07:16:19;4.20;97.10
5899;DHT22;2975;50.956;6.962;2023-04-03T07:18:46;4.40;96.90
5899;DHT22;2975;50.956;6.962;2023-04-03T07:21:12;4.40;96.60
5899;DHT22;2975;50.956;6.962;2023-04-03T07:23:38;4.50;96.60
5899;DHT22;2975;50.956;6.962;2023-04-03T07:26:04;4.60;96.60
5899;DHT22;2975;50.956;6.962;2023-04-03T07:28:29;4.80;95.20
5899;DHT22;2975;50.956;6.962;2023-04-03T07:31:04;4.80;95.00
5899;DHT22;2975;50.956;6.962;2023-04-03T07:33:31;4.90;94.30
5899;DHT22;2975;50.956;6.962;2023-04-03T07:35:57;5.00;94.00
5899;DHT22;2975;50.956;6.962;2023-04-03T07:38:23;5.10;93.90
5899;DHT22;2975;50.956;6.962;2023-04-03T07:40:50;5.00;94.20
5899;DHT22;2975;50.956;6.962;2023-04-03T07:43:17;5.10;93.70
5899;DHT22;2975;50.956;6.962;2023-04-03T07:45:43;5.00;93.70
5899;DHT22;2975;50.956;6.962;2023-04-03T07:48:12;5.00;93.90
5899;DHT22;2975;50.956;6.962;2023-04-03T07:50:40;4.90;94.00
5899;DHT22;2975;50.956;6.962;2023-04-03T07:53:06;5.10;94.30
5899;DHT22;2975;50.956;6.962;2023-04-03T07:55:32;5.20;94.60
5899;DHT22;2975;50.956;6.962;2023-04-03T07:57:58;5.30;94.20
5899;DHT22;2975;50.956;6.962;2023-04-03T08:00:23;5.40;93.60
5899;DHT22;2975;50.956;6.962;2023-04-03T08:02:50;5.40;93.40
5899;DHT22;2975;50.956;6.962;2023-04-03T08:05:18;5.50;93.30
5899;DHT22;2975;50.956;6.962;2023-04-03T08:07:44;5.60;93.30
5899;DHT22;2975;50.956;6.962;2023-04-03T08:10:09;5.60;93.00
5899;DHT22;2975;50.956;6.962;2023-04-03T08:12:35;5.60;92.70
5899;DHT22;2975;50.956;6.962;2023-04-03T08:15:03;5.70;92.80
5899;DHT22;2975;50.956;6.962;2023-04-03T08:17:29;5.60;92.60
5899;DHT22;2975;50.956;6.962;2023-04-03T08:19:55;5.60;92.40
5899;DHT22;2975;50.956;6.962;2023-04-03T08:22:20;5.60;92.40
5899;DHT22;2975;50.956;6.962;2023-04-03T08:24:46;5.60;92.00
5899;DHT22;2975;50.956;6.962;2023-04-03T08:27:12;5.60;91.90
5899;DHT22;2975;50.956;6.962;2023-04-03T08:29:37;5.60;91.80
5899;DHT22;2975;50.956;6.962;2023-04-03T08:32:04;5.70;91.90
5899;DHT22;2975;50.956;6.962;2023-04-03T08:34:31;5.80;92.00
5899;DHT22;2975;50.956;6.962;2023-04-03T08:37:00;5.90;91.80
5899;DHT22;2975;50.956;6.962;2023-04-03T08:39:26;5.90;91.40
5899;DHT22;2975;50.956;6.962;2023-04-03T08:41:52;6.00;91.50
5899;DHT22;2975;50.956;6.962;2023-04-03T08:50:41;6.20;90.70
5899;DHT22;2975;50.956;6.962;2023-04-03T08:53:20;6.20;90.30
5899;DHT22;2975;50.956;6.962;2023-04-03T08:55:49;6.20;90.60
5899;DHT22;2975;50.956;6.962;2023-04-03T08:58:19;6.30;90.40
5899;DHT22;2975;50.956;6.962;2023-04-03T09:03:16;6.40;88.80
5899;DHT22;2975;50.956;6.962;2023-04-03T09:08:24;6.70;85.70
5899;DHT22;2975;50.956;6.962;2023-04-03T09:10:59;6.70;82.50
5899;DHT22;2975;50.956;6.962;2023-04-03T09:13:57;6.80;79.70
5899;DHT22;2975;50.956;6.962;2023-04-03T09:19:31;6.70;80.50
5899;DHT22;2975;50.956;6.962;2023-04-03T09:22:21;6.80;79.60
5899;DHT22;2975;50.956;6.962;2023-04-03T09:27:33;6.90;80.90
5899;DHT22;2975;50.956;6.962;2023-04-03T09:29:58;7.00;81.40
5899;DHT22;2975;50.956;6.962;2023-04-03T09:32:31;7.10;81.40
5899;DHT22;2975;50.956;6.962;2023-04-03T09:35:01;7.10;81.00
5899;DHT22;2975;50.956;6.962;2023-04-03T09:38:36;7.30;80.90
5899;DHT22;2975;50.956;6.962;2023-04-03T09:40:45;7.30;81.40
5899;DHT22;2975;50.956;6.962;2023-04-03T09:45:45;7.30;81.50
5899;DHT22;2975;50.956;6.962;2023-04-03T09:53:36;7.30;79.70
5899;DHT22;2975;50.956;6.962;2023-04-03T09:58:45;7.50;73.60
5899;DHT22;2975;50.956;6.962;2023-04-03T10:01:32;7.60;69.30
5899;DHT22;2975;50.956;6.962;2023-04-03T10:04:13;7.70;68.80
5899;DHT22;2975;50.956;6.962;2023-04-03T10:09:24;7.70;66.90
5899;DHT22;2975;50.956;6.962;2023-04-03T10:14:36;7.90;67.20
5899;DHT22;2975;50.956;6.962;2023-04-03T10:17:18;8.10;64.50
5899;DHT22;2975;50.956;6.962;2023-04-03T10:19:53;8.20;62.30
5899;DHT22;2975;50.956;6.962;2023-04-03T10:25:18;8.30;59.60
5899;DHT22;2975;50.956;6.962;2023-04-03T10:30:48;8.50;58.70
5899;DHT22;2975;50.956;6.962;2023-04-03T10:41:50;8.50;57.70
5899;DHT22;2975;50.956;6.962;2023-04-03T10:47:27;8.60;58.10
5899;DHT22;2975;50.956;6.962;2023-04-03T10:58:48;8.90;57.40
5899;DHT22;2975;50.956;6.962;2023-04-03T11:01:22;8.90;58.20
5899;DHT22;2975;50.956;6.962;2023-04-03T11:03:53;8.90;56.50
5899;DHT22;2975;50.956;6.962;2023-04-03T11:06:21;8.90;57.50
5899;DHT22;2975;50.956;6.962;2023-04-03T11:09:53;9.00;56.40
5899;DHT22;2975;50.956;6.962;2023-04-03T11:11:48;8.90;57.20
5899;DHT22;2975;50.956;6.962;2023-04-03T11:14:34;9.00;57.10
5899;DHT22;2975;50.956;6.962;2023-04-03T11:19:45;9.10;56.30
5899;DHT22;2975;50.956;6.962;2023-04-03T11:25:38;9.00;54.10
5899;DHT22;2975;50.956;6.962;2023-04-03T11:28:12;9.00;53.90
5899;DHT22;2975;50.956;6.962;2023-04-03T11:30:48;9.00;54.90
5899;DHT22;2975;50.956;6.962;2023-04-03T11:35:55;9.00;55.40
5899;DHT22;2975;50.956;6.962;2023-04-03T11:38:43;9.20;55.50
5899;DHT22;2975;50.956;6.962;2023-04-03T11:41:10;9.10;54.60
5899;DHT22;2975;50.956;6.962;2023-04-03T11:43:41;9.10;56.10
5899;DHT22;2975;50.956;6.962;2023-04-03T11:46:08;9.20;55.70
5899;DHT22;2975;50.956;6.962;2023-04-03T11:51:01;9.40;53.90
5899;DHT22;2975;50.956;6.962;2023-04-03T11:53:30;9.50;54.30
5899;DHT22;2975;50.956;6.962;2023-04-03T11:55:57;9.40;54.60
5899;DHT22;2975;50.956;6.962;2023-04-03T11:58:34;9.40;56.20
5899;DHT22;2975;50.956;6.962;2023-04-03T12:41:37;9.50;53.20
5899;DHT22;2975;50.956;6.962;2023-04-03T12:46:52;9.40;53.40
5899;DHT22;2975;50.956;6.962;2023-04-03T12:49:33;9.40;53.40
5899;DHT22;2975;50.956;6.962;2023-04-03T12:51:59;9.30;53.50
5899;DHT22;2975;50.956;6.962;2023-04-03T12:54:51;9.40;53.50
5899;DHT22;2975;50.956;6.962;2023-04-03T12:57:26;9.50;54.10
5899;DHT22;2975;50.956;6.962;2023-04-03T12:59:55;9.60;51.20
5899;DHT22;2975;50.956;6.962;2023-04-03T13:02:30;9.50;50.80
5899;DHT22;2975;50.956;6.962;2023-04-03T13:04:58;9.60;50.00
5899;DHT22;2975;50.956;6.962;2023-04-03T13:07:28;9.50;49.10
5899;DHT22;2975;50.956;6.962;2023-04-03T13:10:04;9.50;49.40
5899;DHT22;2975;50.956;6.962;2023-04-03T13:12:30;9.40;49.50
5899;DHT22;2975;50.956;6.962;2023-04-03T13:14:59;9.60;49.50
5899;DHT22;2975;50.956;6.962;2023-04-03T13:17:27;9.70;49.00
5899;DHT22;2975;50.956;6.962;2023-04-03T13:19:53;9.60;48.90
5899;DHT22;2975;50.956;6.962;2023-04-03T13:22:38;9.60;49.40
5899;DHT22;2975;50.956;6.962;2023-04-03T13:25:11;9.60;48.50
5899;DHT22;2975;50.956;6.962;2023-04-03T13:27:38;9.60;48.10
5899;DHT22;2975;50.956;6.962;2023-04-03T13:30:21;9.50;49.30
5899;DHT22;2975;50.956;6.962;2023-04-03T13:32:48;9.60;49.40
5899;DHT22;2975;50.956;6.962;2023-04-03T13:37:59;9.70;49.80
5899;DHT22;2975;50.956;6.962;2023-04-03T13:40:25;9.60;50.00
5899;DHT22;2975;50.956;6.962;2023-04-03T13:43:14;9.70;49.70
5899;DHT22;2975;50.956;6.962;2023-04-03T13:46:00;9.70;50.60
5899;DHT22;2975;50.956;6.962;2023-04-03T13:48:36;9.80;51.30
5899;DHT22;2975;50.956;6.962;2023-04-03T13:53:44;9.80;50.90
5899;DHT22;2975;50.956;6.962;2023-04-03T13:56:39;9.90;50.20
5899;DHT22;2975;50.956;6.962;2023-04-03T14:02:31;9.90;50.80
5899;DHT22;2975;50.956;6.962;2023-04-03T14:04:53;9.80;50.40
5899;DHT22;2975;50.956;6.962;2023-04-03T14:07:22;9.90;50.30
5899;DHT22;2975;50.956;6.962;2023-04-03T14:09:48;9.70;50.20
5899;DHT22;2975;50.956;6.962;2023-04-03T14:12:21;9.80;51.20
5899;DHT22;2975;50.956;6.962;2023-04-03T14:14:49;10.00;50.50
5899;DHT22;2975;50.956;6.962;2023-04-03T14:17:21;10.10;50.80
5899;DHT22;2975;50.956;6.962;2023-04-03T14:19:48;10.10;52.60
5899;DHT22;2975;50.956;6.962;2023-04-03T14:22:19;10.10;52.00
5899;DHT22;2975;50.956;6.962;2023-04-03T14:24:46;10.00;51.40
5899;DHT22;2975;50.956;6.962;2023-04-03T14:27:29;10.00;52.20
5899;DHT22;2975;50.956;6.962;2023-04-03T14:29:59;9.90;53.20
5899;DHT22;2975;50.956;6.962;2023-04-03T14:32:25;9.90;54.60
5899;DHT22;2975;50.956;6.962;2023-04-03T14:34:52;10.00;54.50
5899;DHT22;2975;50.956;6.962;2023-04-03T14:37:23;10.10;53.30
5899;DHT22;2975;50.956;6.962;2023-04-03T14:39:50;10.00;53.50
5899;DHT22;2975;50.956;6.962;2023-04-03T14:42:22;10.10;54.40
5899;DHT22;2975;50.956;6.962;2023-04-03T14:44:48;10.10;52.90
5899;DHT22;2975;50.956;6.962;2023-04-03T14:47:16;10.10;53.10
5899;DHT22;2975;50.956;6.962;2023-04-03T14:49:42;10.20;51.70
5899;DHT22;2975;50.956;6.962;2023-04-03T14:52:33;10.10;52.30
5899;DHT22;2975;50.956;6.962;2023-04-03T14:55:00;10.20;51.20
5899;DHT22;2975;50.956;6.962;2023-04-03T14:57:28;10.10;52.30
5899;DHT22;2975;50.956;6.962;2023-04-03T14:59:53;10.10;53.20
5899;DHT22;2975;50.956;6.962;2023-04-03T15:02:31;10.20;51.30
5899;DHT22;2975;50.956;6.962;2023-04-03T15:04:58;10.10;50.60
5899;DHT22;2975;50.956;6.962;2023-04-03T15:07:26;10.10;50.90
5899;DHT22;2975;50.956;6.962;2023-04-03T15:09:52;10.20;50.80
5899;DHT22;2975;50.956;6.962;2023-04-03T15:12:18;10.20;51.30
5899;DHT22;2975;50.956;6.962;2023-04-03T15:14:43;10.20;51.20
5899;DHT22;2975;50.956;6.962;2023-04-03T15:17:15;10.10;52.30
5899;DHT22;2975;50.956;6.962;2023-04-03T15:19:42;10.20;53.20
5899;DHT22;2975;50.956;6.962;2023-04-03T15:22:13;10.20;53.10
5899;DHT22;2975;50.956;6.962;2023-04-03T15:24:40;10.10;52.10
5899;DHT22;2975;50.956;6.962;2023-04-03T15:27:05;10.20;52.90
5899;DHT22;2975;50.956;6.962;2023-04-03T15:29:31;10.30;51.70
5899;DHT22;2975;50.956;6.962;2023-04-03T15:31:57;10.30;52.90
5899;DHT22;2975;50.956;6.962;2023-04-03T15:34:22;10.20;52.90
5899;DHT22;2975;50.956;6.962;2023-04-03T15:36:48;10.10;53.10
5899;DHT22;2975;50.956;6.962;2023-04-03T15:39:14;10.10;53.40
5899;DHT22;2975;50.956;6.962;2023-04-03T15:41:41;10.00;54.20
5899;DHT22;2975;50.956;6.962;2023-04-03T15:44:07;10.00;51.80
5899;DHT22;2975;50.956;6.962;2023-04-03T15:46:33;10.10;51.50
5899;DHT22;2975;50.956;6.962;2023-04-03T15:48:58;10.00;50.80
5899;DHT22;2975;50.956;6.962;2023-04-03T15:51:24;10.00;50.50
5899;DHT22;2975;50.956;6.962;2023-04-03T15:53:49;9.90;51.40
5899;DHT22;2975;50.956;6.962;2023-04-03T15:56:15;9.90;51.60
5899;DHT22;2975;50.956;6.962;2023-04-03T15:58:41;10.00;51.40
5899;DHT22;2975;50.956;6.962;2023-04-03T16:01:09;9.80;53.90
5899;DHT22;2975;50.956;6.962;2023-04-03T16:03:36;9.80;55.30
5899;DHT22;2975;50.956;6.962;2023-04-03T16:06:04;9.80;55.50
5899;DHT22;2975;50.956;6.962;2023-04-03T16:08:30;9.80;56.10
5899;DHT22;2975;50.956;6.962;2023-04-03T16:10:55;9.80;56.70
5899;DHT22;2975;50.956;6.962;2023-04-03T16:13:21;9.70;56.50
5899;DHT22;2975;50.956;6.962;2023-04-03T16:15:46;9.70;55.90
5899;DHT22;2975;50.956;6.962;2023-04-03T16:18:14;9.70;56.60
5899;DHT22;2975;50.956;6.962;2023-04-03T16:20:40;9.60;56.80
5899;DHT22;2975;50.956;6.962;2023-04-03T16:23:05;9.50;56.90
5899;DHT22;2975;50.956;6.962;2023-04-03T16:25:31;9.50;57.00
5899;DHT22;2975;50.956;6.962;2023-04-03T16:27:57;9.50;55.10
5899;DHT22;2975;50.956;6.962;2023-04-03T16:30:22;9.50;55.30
5899;DHT22;2975;50.956;6.962;2023-04-03T16:32:48;9.50;56.50
5899;DHT22;2975;50.956;6.962;2023-04-03T16:35:14;9.50;56.90
5899;DHT22;2975;50.956;6.962;2023-04-03T16:37:40;9.40;57.10
5899;DHT22;2975;50.956;6.962;2023-04-03T16:40:07;9.50;57.40
5899;DHT22;2975;50.956;6.962;2023-04-03T16:42:33;9.30;57.40
5899;DHT22;2975;50.956;6.962;2023-04-03T16:44:58;9.20;57.90
5899;DHT22;2975;50.956;6.962;2023-04-03T16:47:26;9.10;58.70
5899;DHT22;2975;50.956;6.962;2023-04-03T16:49:52;9.10;59.10
5899;DHT22;2975;50.956;6.962;2023-04-03T16:52:17;9.10;59.10
5899;DHT22;2975;50.956;6.962;2023-04-03T16:54:43;9.20;58.50
5899;DHT22;2975;50.956;6.962;2023-04-03T16:57:08;9.20;58.60
5899;DHT22;2975;50.956;6.962;2023-04-03T16:59:34;9.00;58.30
5899;DHT22;2975;50.956;6.962;2023-04-03T17:02:00;8.90;58.80
5899;DHT22;2975;50.956;6.962;2023-04-03T17:04:25;8.90;58.90
5899;DHT22;2975;50.956;6.962;2023-04-03T17:06:51;8.80;58.50
5899;DHT22;2975;50.956;6.962;2023-04-03T17:09:17;8.70;59.30
5899;DHT22;2975;50.956;6.962;2023-04-03T17:11:43;8.80;58.90
5899;DHT22;2975;50.956;6.962;2023-04-03T17:14:08;8.70;59.10
5899;DHT22;2975;50.956;6.962;2023-04-03T17:16:35;8.70;59.10
5899;DHT22;2975;50.956;6.962;2023-04-03T17:19:02;8.70;59.30
5899;DHT22;2975;50.956;6.962;2023-04-03T17:21:28;8.70;59.00
5899;DHT22;2975;50.956;6.962;2023-04-03T17:23:59;8.70;59.50
5899;DHT22;2975;50.956;6.962;2023-04-03T17:26:26;8.60;58.70
5899;DHT22;2975;50.956;6.962;2023-04-03T17:28:52;8.50;59.30
5899;DHT22;2975;50.956;6.962;2023-04-03T17:31:18;8.50;58.60
5899;DHT22;2975;50.956;6.962;2023-04-03T17:33:43;8.50;58.60
5899;DHT22;2975;50.956;6.962;2023-04-03T17:36:09;8.50;59.00
5899;DHT22;2975;50.956;6.962;2023-04-03T17:38:35;8.40;59.20
5899;DHT22;2975;50.956;6.962;2023-04-03T17:41:05;8.40;59.10
5899;DHT22;2975;50.956;6.962;2023-04-03T17:43:31;8.40;59.40
5899;DHT22;2975;50.956;6.962;2023-04-03T17:46:15;8.30;59.20
5899;DHT22;2975;50.956;6.962;2023-04-03T17:48:42;8.30;59.30
5899;DHT22;2975;50.956;6.962;2023-04-03T17:51:11;8.20;59.50
5899;DHT22;2975;50.956;6.962;2023-04-03T17:53:37;8.10;59.90
5899;DHT22;2975;50.956;6.962;2023-04-03T17:56:12;8.00;60.30
5899;DHT22;2975;50.956;6.962;2023-04-03T17:58:38;8.00;60.10
5899;DHT22;2975;50.956;6.962;2023-04-03T18:01:18;8.00;60.50
5899;DHT22;2975;50.956;6.962;2023-04-03T18:03:45;7.90;61.50
5899;DHT22;2975;50.956;6.962;2023-04-03T18:06:14;7.80;61.40
5899;DHT22;2975;50.956;6.962;2023-04-03T18:08:58;7.70;62.10
5899;DHT22;2975;50.956;6.962;2023-04-03T18:11:27;7.60;62.80
5899;DHT22;2975;50.956;6.962;2023-04-03T18:13:54;7.60;63.20
5899;DHT22;2975;50.956;6.962;2023-04-03T18:16:21;7.50;63.50
5899;DHT22;2975;50.956;6.962;2023-04-03T18:18:47;7.50;63.50
5899;DHT22;2975;50.956;6.962;2023-04-03T18:21:14;7.50;63.80
5899;DHT22;2975;50.956;6.962;2023-04-03T18:23:46;7.40;64.00
5899;DHT22;2975;50.956;6.962;2023-04-03T18:26:13;7.40;64.40
5899;DHT22;2975;50.956;6.962;2023-04-03T18:28:41;7.40;64.40
5899;DHT22;2975;50.956;6.962;2023-04-03T18:31:09;7.30;64.00
5899;DHT22;2975;50.956;6.962;2023-04-03T18:33:36;7.30;64.10
5899;DHT22;2975;50.956;6.962;2023-04-03T18:36:03;7.20;64.00